Time;durP1;ratioP1;P1;durP2;ratioP2;P2;SDS_P1;SDS_P2;PMS_P1;PMS_P2;Temp;Humidity;BMP_temperature;BMP_pressure;BME280_temperature;BME280_humidity;BME280_pressure;Samples;Min_cycle;Max_cycle;Signal;HPM_P1;HPM_P2
2022/03/05 00:00:33;;;;;;;23.67;11.63;;;1.40;99.90;;;;;;5074288;28;20202;-43
2022/03/05 00:02:59;;;;;;;18.77;10.87;;;1.40;99.90;;;;;;5073974;28;20162;-41
2022/03/05 00:05:25;;;;;;;22.43;11.27;;;1.30;99.90;;;;;;5074713;28;20181;-41
2022/03/05 00:07:50;;;;;;;24.33;12.00;;;1.30;99.90;;;;;;5074278;28;20266;-40
2022/03/05 00:10:18;;;;;;;23.40;11.47;;;1.20;99.90;;;;;;5074186;28;20182;-43
2022/03/05 00:12:51;;;;;;;24.50;12.00;;;1.20;99.90;;;;;;5074228;28;20197;-41
2022/03/05 00:15:18;;;;;;;26.47;12.80;;;1.10;99.90;;;;;;5074604;28;20166;-44
2022/03/05 00:17:44;;;;;;;22.93;12.13;;;1.10;99.90;;;;;;5074083;28;20535;-44
2022/03/05 00:20:10;;;;;;;21.67;12.60;;;1.00;99.90;;;;;;5074230;28;20361;-41
2022/03/05 00:22:36;;;;;;;26.03;12.57;;;1.00;99.90;;;;;;5074117;28;20174;-43
2022/03/05 00:25:04;;;;;;;27.53;12.27;;;1.00;99.90;;;;;;5073808;28;20260;-41
2022/03/05 00:27:30;;;;;;;25.33;12.80;;;1.00;99.90;;;;;;5055906;28;20195;-41
2022/03/05 00:29:55;;;;;;;27.63;12.40;;;0.90;99.90;;;;;;5073926;28;20428;-43
2022/03/05 00:32:21;;;;;;;23.40;11.20;;;0.90;99.90;;;;;;5074090;28;20183;-42
2022/03/05 00:34:47;;;;;;;26.50;12.70;;;0.80;99.90;;;;;;5073806;28;20221;-42
2022/03/05 00:37:13;;;;;;;25.10;12.83;;;0.80;99.90;;;;;;5073699;28;20199;-44
2022/03/05 00:39:39;;;;;;;31.33;13.43;;;0.80;99.90;;;;;;5073959;28;20204;-43
2022/03/05 00:42:05;;;;;;;24.57;12.87;;;0.70;99.90;;;;;;5073658;28;20637;-42
2022/03/05 00:44:31;;;;;;;26.97;13.43;;;0.70;99.90;;;;;;5073969;28;20548;-41
2022/03/05 00:46:57;;;;;;;23.47;12.30;;;0.70;99.90;;;;;;5073471;28;20278;-43
2022/03/05 00:49:23;;;;;;;27.07;13.00;;;0.70;99.90;;;;;;5073707;28;20557;-41
2022/03/05 00:51:49;;;;;;;30.27;13.43;;;0.70;99.90;;;;;;5074221;28;20175;-42
2022/03/05 00:54:15;;;;;;;28.47;12.97;;;0.60;99.90;;;;;;5073646;28;20178;-42
2022/03/05 00:56:41;;;;;;;26.00;13.30;;;0.60;99.90;;;;;;5073482;28;20779;-40
2022/03/05 00:59:07;;;;;;;27.00;13.13;;;0.60;99.90;;;;;;5073791;28;20209;-43
2022/03/05 01:01:32;;;;;;;25.57;12.50;;;0.60;99.90;;;;;;5073920;28;20420;-43
2022/03/05 01:03:58;;;;;;;26.83;12.77;;;0.60;99.90;;;;;;5073984;28;20171;-43
2022/03/05 01:06:24;;;;;;;27.30;12.67;;;0.50;99.90;;;;;;5074309;28;20252;-41
2022/03/05 01:08:49;;;;;;;27.33;14.07;;;0.50;99.90;;;;;;5074057;28;20200;-41
2022/03/05 01:11:16;;;;;;;26.77;13.20;;;0.50;99.90;;;;;;5073576;28;20183;-41
2022/03/05 01:13:42;;;;;;;29.70;13.27;;;0.50;99.90;;;;;;5073537;28;20189;-41
2022/03/05 01:16:08;;;;;;;28.03;12.47;;;0.50;99.90;;;;;;5077488;28;20921;-42
2022/03/05 01:18:34;;;;;;;29.20;13.80;;;0.40;99.90;;;;;;5077321;28;20454;-42
2022/03/05 01:21:00;;;;;;;25.57;13.00;;;0.40;99.90;;;;;;5077395;28;20175;-40
2022/03/05 01:23:25;;;;;;;29.13;13.23;;;0.40;99.90;;;;;;5078078;28;20204;-42
2022/03/05 01:25:51;;;;;;;28.37;13.17;;;0.40;99.90;;;;;;5077180;28;20637;-42
2022/03/05 01:28:16;;;;;;;26.70;13.53;;;0.40;99.90;;;;;;5077170;28;20315;-41
2022/03/05 01:30:42;;;;;;;27.63;13.87;;;0.30;99.90;;;;;;5077219;28;20192;-42
2022/03/05 01:33:07;;;;;;;28.87;13.57;;;0.30;99.90;;;;;;5059208;28;20215;-40
2022/03/05 01:35:33;;;;;;;30.57;13.50;;;0.20;99.90;;;;;;5077330;28;20181;-44
2022/03/05 01:37:59;;;;;;;30.63;13.07;;;0.20;99.90;;;;;;5076937;28;20200;-40
2022/03/05 01:40:24;;;;;;;26.07;12.13;;;0.20;99.90;;;;;;5077033;28;20226;-42
2022/03/05 01:42:50;;;;;;;31.40;13.07;;;0.10;99.90;;;;;;5076831;28;20181;-43
2022/03/05 01:45:15;;;;;;;31.63;13.30;;;0.10;99.90;;;;;;5076778;28;20691;-42
2022/03/05 01:47:41;;;;;;;29.40;13.33;;;0.10;99.90;;;;;;5076786;28;20220;-42
2022/03/05 01:50:08;;;;;;;29.97;14.13;;;0.10;99.90;;;;;;5077183;28;20212;-41
2022/03/05 01:52:35;;;;;;;31.00;13.67;;;0.10;99.90;;;;;;5077199;28;20520;-42
2022/03/05 01:55:01;;;;;;;28.03;13.50;;;0.10;99.90;;;;;;5076773;28;20474;-42
2022/03/05 01:57:26;;;;;;;27.37;13.30;;;0.10;99.90;;;;;;5076837;28;20445;-44
2022/03/05 01:59:53;;;;;;;30.20;14.03;;;0.10;99.90;;;;;;5076578;28;20454;-40
2022/03/05 02:02:18;;;;;;;29.17;13.83;;;0.10;99.90;;;;;;5076477;28;20177;-41
2022/03/05 02:04:44;;;;;;;30.03;14.77;;;0.10;99.90;;;;;;5076751;28;20464;-40
2022/03/05 02:07:10;;;;;;;29.40;13.83;;;0.10;99.90;;;;;;5058461;28;20659;-41
2022/03/05 02:09:36;;;;;;;29.87;13.70;;;0.10;99.90;;;;;;5076478;28;20208;-41
2022/03/05 02:12:02;;;;;;;31.93;12.27;;;0.10;99.90;;;;;;5076342;28;20416;-41
2022/03/05 02:14:29;;;;;;;33.27;14.27;;;0.10;99.90;;;;;;5076552;28;20183;-40
2022/03/05 02:16:55;;;;;;;31.63;13.60;;;0.10;99.90;;;;;;5076198;28;20841;-41
2022/03/05 02:19:21;;;;;;;30.23;14.43;;;0.10;99.90;;;;;;5076176;28;20499;-40
2022/03/05 02:21:47;;;;;;;30.40;13.87;;;0.10;99.90;;;;;;5076371;28;20168;-43
2022/03/05 02:24:13;;;;;;;31.33;14.17;;;0.10;99.90;;;;;;5076224;28;20263;-41
2022/03/05 02:26:39;;;;;;;31.73;14.37;;;0.10;99.90;;;;;;5075599;28;20417;-41
2022/03/05 02:29:05;;;;;;;31.90;14.50;;;0.00;99.90;;;;;;5075983;28;20406;-44
2022/03/05 02:31:30;;;;;;;29.73;12.93;;;0.00;99.90;;;;;;5075961;28;20517;-43
2022/03/05 02:33:56;;;;;;;29.83;13.57;;;0.00;99.90;;;;;;5076260;28;20195;-42
2022/03/05 02:36:23;;;;;;;31.83;13.07;;;0.00;99.90;;;;;;5076030;28;20212;-43
2022/03/05 02:38:49;;;;;;;36.53;14.53;;;-0.10;99.90;;;;;;5075773;28;20553;-43
2022/03/05 02:41:18;;;;;;;31.23;14.40;;;-0.10;99.90;;;;;;5075997;28;20442;-42
2022/03/05 02:43:44;;;;;;;32.57;13.43;;;-0.10;99.90;;;;;;5075716;28;20895;-41
2022/03/05 02:46:10;;;;;;;33.67;14.57;;;-0.10;99.90;;;;;;5075647;28;20879;-41
2022/03/05 02:48:36;;;;;;;34.17;14.23;;;-0.10;99.90;;;;;;5075545;28;20434;-40
2022/03/05 02:51:02;;;;;;;31.97;13.40;;;-0.10;99.90;;;;;;5057671;28;20189;-42
2022/03/05 02:53:29;;;;;;;34.27;13.83;;;-0.20;99.90;;;;;;5075669;28;20227;-45
2022/03/05 02:55:55;;;;;;;34.70;14.47;;;-0.20;99.90;;;;;;5075643;28;20418;-44
2022/03/05 02:58:21;;;;;;;31.43;14.53;;;-0.20;99.90;;;;;;5075350;28;20504;-41
2022/03/05 03:00:46;;;;;;;30.93;14.40;;;-0.20;99.90;;;;;;5075719;28;20183;-43
2022/03/05 03:03:12;;;;;;;30.43;14.10;;;-0.20;99.90;;;;;;5075431;28;20265;-42
2022/03/05 03:05:38;;;;;;;30.47;14.13;;;-0.20;99.90;;;;;;5076228;28;20184;-43
2022/03/05 03:08:04;;;;;;;31.60;14.80;;;-0.20;99.90;;;;;;5075255;28;20216;-42
2022/03/05 03:10:30;;;;;;;35.60;15.20;;;-0.20;99.90;;;;;;5075444;28;20975;-42
2022/03/05 03:12:57;;;;;;;34.80;14.63;;;-0.30;99.90;;;;;;5075228;28;20505;-41
2022/03/05 03:15:22;;;;;;;34.73;14.13;;;-0.30;99.90;;;;;;5075352;28;20214;-41
2022/03/05 03:17:50;;;;;;;36.90;14.10;;;-0.30;99.90;;;;;;5075315;28;20477;-41
2022/03/05 03:20:24;;;;;;;38.37;15.40;;;-0.20;99.90;;;;;;5075259;28;20671;-42
2022/03/05 03:22:50;;;;;;;33.37;14.93;;;-0.20;99.90;;;;;;5075151;28;20901;-42
2022/03/05 03:25:16;;;;;;;34.30;13.70;;;-0.30;99.90;;;;;;5075009;28;20889;-41
2022/03/05 03:27:42;;;;;;;34.87;14.87;;;-0.20;99.90;;;;;;5075053;28;20431;-41
2022/03/05 03:30:10;;;;;;;35.47;14.90;;;-0.30;99.90;;;;;;5074944;28;20785;-42
2022/03/05 03:32:37;;;;;;;33.37;14.60;;;-0.30;99.90;;;;;;5074710;28;20238;-41
2022/03/05 03:35:03;;;;;;;37.23;15.20;;;-0.30;99.90;;;;;;5075069;28;20426;-39
2022/03/05 03:37:29;;;;;;;38.43;14.33;;;-0.40;99.90;;;;;;5074111;28;20435;-41
2022/03/05 03:40:00;;;;;;;33.53;13.63;;;-0.40;99.90;;;;;;5074515;28;20449;-42
2022/03/05 03:42:27;;;;;;;27.67;12.23;;;-0.40;99.90;;;;;;5074771;28;20395;-41
2022/03/05 03:44:53;;;;;;;32.63;15.13;;;-0.40;99.90;;;;;;5074801;28;20437;-42
2022/03/05 03:47:20;;;;;;;38.43;13.70;;;-0.40;99.90;;;;;;5074823;28;20928;-41
2022/03/05 03:49:46;;;;;;;35.93;14.00;;;-0.40;99.90;;;;;;5075000;28;20480;-41
2022/03/05 03:52:16;;;;;;;39.80;14.90;;;-0.40;99.90;;;;;;5075044;28;20413;-42
2022/03/05 03:54:43;;;;;;;35.37;14.47;;;-0.30;99.90;;;;;;5075175;28;20457;-41
2022/03/05 03:57:09;;;;;;;31.97;13.30;;;-0.30;99.90;;;;;;5074248;28;20930;-43
2022/03/05 03:59:34;;;;;;;35.23;14.87;;;-0.40;99.90;;;;;;5074426;28;20457;-42
2022/03/05 04:02:02;;;;;;;36.00;14.37;;;-0.40;99.90;;;;;;5074270;28;20199;-40
2022/03/05 04:04:28;;;;;;;36.10;15.20;;;-0.40;99.90;;;;;;5074535;28;20175;-42
2022/03/05 04:09:37;;;;;;;40.80;16.07;;;-0.40;99.90;;;;;;5074323;28;20409;-43
2022/03/05 04:12:03;;;;;;;33.90;14.30;;;-0.40;99.90;;;;;;5074335;28;20414;-42
2022/03/05 04:14:29;;;;;;;44.33;16.03;;;-0.50;99.90;;;;;;5074524;28;20653;-40
2022/03/05 04:16:54;;;;;;;37.27;15.30;;;-0.40;99.90;;;;;;5074050;28;20199;-40
2022/03/05 04:19:20;;;;;;;38.83;15.03;;;-0.50;99.90;;;;;;5073820;28;20207;-43
2022/03/05 04:21:46;;;;;;;35.90;14.93;;;-0.50;99.90;;;;;;5073906;28;20189;-44
2022/03/05 04:24:12;;;;;;;35.77;15.90;;;-0.50;99.90;;;;;;5073941;28;20179;-41
2022/03/05 04:26:38;;;;;;;36.87;15.13;;;-0.60;99.90;;;;;;5073704;28;20413;-43
2022/03/05 04:29:04;;;;;;;41.70;16.20;;;-0.60;99.90;;;;;;5073637;28;20191;-42
2022/03/05 04:31:30;;;;;;;40.53;15.83;;;-0.60;99.90;;;;;;5074083;28;20421;-42
2022/03/05 04:33:56;;;;;;;35.17;15.40;;;-0.70;99.90;;;;;;5074117;28;20425;-42
2022/03/05 04:36:21;;;;;;;35.90;14.40;;;-0.70;99.90;;;;;;5074204;28;20283;-41
2022/03/05 04:38:47;;;;;;;33.30;13.27;;;-0.70;99.90;;;;;;5073547;28;20218;-42
2022/03/05 04:41:12;;;;;;;32.40;13.50;;;-0.70;99.90;;;;;;5073606;28;20179;-39
2022/03/05 04:43:38;;;;;;;36.60;15.33;;;-0.70;99.90;;;;;;5073645;28;20176;-42
2022/03/05 04:46:03;;;;;;;36.13;14.70;;;-0.70;99.90;;;;;;5073618;28;20200;-43
2022/03/05 04:48:29;;;;;;;38.50;15.00;;;-0.70;99.90;;;;;;5073466;28;20648;-43
2022/03/05 04:50:55;;;;;;;38.60;15.93;;;-0.70;99.90;;;;;;5073659;28;20182;-43
2022/03/05 04:53:21;;;;;;;40.37;14.07;;;-0.70;99.90;;;;;;5073864;28;20175;-41
2022/03/05 04:55:48;;;;;;;33.80;14.10;;;-0.80;99.90;;;;;;5073667;28;20179;-43
2022/03/05 04:58:13;;;;;;;37.37;15.90;;;-0.80;99.90;;;;;;5073533;28;20444;-42
2022/03/05 05:00:40;;;;;;;36.97;15.40;;;-0.80;99.90;;;;;;5073747;28;20473;-42
2022/03/05 05:03:06;;;;;;;36.03;15.23;;;-0.80;99.90;;;;;;5074108;28;20442;-42
2022/03/05 05:05:32;;;;;;;42.23;16.30;;;-0.80;99.90;;;;;;5075591;28;20180;-41
2022/03/05 05:07:57;;;;;;;37.03;15.43;;;-0.80;99.90;;;;;;5075478;28;20699;-43
2022/03/05 05:10:23;;;;;;;38.63;15.33;;;-0.90;99.90;;;;;;5075898;28;20179;-41
2022/03/05 05:12:48;;;;;;;31.30;12.43;;;-0.90;99.90;;;;;;5074095;28;20262;-42
2022/03/05 05:15:14;;;;;;;39.53;15.80;;;-0.90;99.90;;;;;;5073249;28;20176;-42
2022/03/05 05:17:40;;;;;;;36.00;14.33;;;-0.90;99.90;;;;;;5073349;28;20199;-40
2022/03/05 05:20:07;;;;;;;33.53;14.70;;;-0.90;99.90;;;;;;5073203;28;20249;-42
2022/03/05 05:22:33;;;;;;;44.27;16.23;;;-0.90;99.90;;;;;;5073181;28;20195;-42
2022/03/05 05:25:00;;;;;;;41.73;15.20;;;-1.00;99.90;;;;;;5055589;28;20434;-43
2022/03/05 05:27:26;;;;;;;36.90;15.13;;;-1.00;99.90;;;;;;5073247;28;20195;-41
2022/03/05 05:29:52;;;;;;;34.13;14.80;;;-1.00;99.90;;;;;;5073204;28;20417;-41
2022/03/05 05:32:18;;;;;;;42.60;16.53;;;-1.00;99.90;;;;;;5073532;28;20414;-43
2022/03/05 05:34:43;;;;;;;43.90;14.90;;;-1.10;99.90;;;;;;5073461;28;20240;-43
2022/03/05 05:37:09;;;;;;;39.17;16.03;;;-1.10;99.90;;;;;;5073235;28;20651;-42
2022/03/05 05:39:35;;;;;;;27.60;11.33;;;-1.10;99.90;;;;;;5073484;28;20207;-42
2022/03/05 05:42:01;;;;;;;42.70;14.77;;;-1.00;99.90;;;;;;5073376;28;20673;-41
2022/03/05 05:44:27;;;;;;;40.63;16.17;;;-1.00;99.90;;;;;;5073538;28;20417;-42
2022/03/05 05:46:53;;;;;;;45.00;17.37;;;-1.00;99.90;;;;;;5073044;28;20249;-41
2022/03/05 05:49:18;;;;;;;34.50;13.80;;;-1.00;99.90;;;;;;5073013;28;20250;-41
2022/03/05 05:51:44;;;;;;;32.03;14.30;;;-1.00;99.90;;;;;;5072946;28;20258;-42
2022/03/05 05:54:10;;;;;;;43.20;15.97;;;-1.00;99.90;;;;;;5072865;28;20673;-39
2022/03/05 05:56:35;;;;;;;41.67;17.50;;;-1.00;99.90;;;;;;5072850;28;20183;-42
2022/03/05 05:59:01;;;;;;;36.53;15.77;;;-1.00;99.90;;;;;;5072963;28;20226;-43
2022/03/05 06:01:27;;;;;;;35.67;14.73;;;-1.00;99.90;;;;;;5073741;28;20179;-41
2022/03/05 06:03:53;;;;;;;38.73;14.97;;;-1.00;99.90;;;;;;5076818;28;20194;-39
2022/03/05 06:06:19;;;;;;;38.90;16.03;;;-1.00;99.90;;;;;;5076703;28;20187;-42
2022/03/05 06:08:46;;;;;;;37.97;16.17;;;-0.90;99.90;;;;;;5076287;28;20460;-42
2022/03/05 06:11:11;;;;;;;46.53;16.87;;;-0.90;99.90;;;;;;5058622;28;20916;-41
2022/03/05 06:13:37;;;;;;;36.53;14.63;;;-0.90;99.90;;;;;;5076299;28;20421;-40
2022/03/05 06:16:03;;;;;;;39.47;15.23;;;-0.90;99.90;;;;;;5076547;28;20542;-40
2022/03/05 06:18:29;;;;;;;41.00;16.10;;;-1.00;99.90;;;;;;5076320;28;20215;-42
2022/03/05 06:20:55;;;;;;;38.07;15.43;;;-1.00;99.90;;;;;;5076679;28;20903;-41
2022/03/05 06:23:21;;;;;;;32.67;14.13;;;-1.00;99.90;;;;;;5076044;28;20175;-43
2022/03/05 06:25:46;;;;;;;39.27;16.27;;;-0.90;99.90;;;;;;5076103;28;20203;-43
2022/03/05 06:28:12;;;;;;;39.77;15.47;;;-0.90;99.90;;;;;;5076308;28;20660;-42
2022/03/05 06:30:38;;;;;;;41.60;15.27;;;-1.00;99.90;;;;;;5076024;28;20678;-42
2022/03/05 06:33:04;;;;;;;39.20;15.73;;;-0.90;99.90;;;;;;5076485;28;20497;-41
2022/03/05 06:35:29;;;;;;;39.70;14.73;;;-0.90;99.90;;;;;;5076673;28;20183;-41
2022/03/05 06:37:55;;;;;;;32.97;13.40;;;-0.90;99.90;;;;;;5076486;28;20270;-41
2022/03/05 06:40:21;;;;;;;37.80;14.77;;;-0.90;99.90;;;;;;5076004;28;20218;-43
2022/03/05 06:42:46;;;;;;;37.07;15.43;;;-0.90;99.90;;;;;;5058174;28;20301;-43
2022/03/05 06:45:12;;;;;;;42.27;16.23;;;-0.90;99.90;;;;;;5075806;28;20187;-44
2022/03/05 06:47:39;;;;;;;40.37;15.50;;;-0.90;99.90;;;;;;5076273;28;20199;-39
2022/03/05 06:50:06;;;;;;;40.63;15.67;;;-0.80;99.90;;;;;;5076005;28;20421;-42
2022/03/05 06:52:32;;;;;;;31.33;12.93;;;-0.80;99.90;;;;;;5075723;28;20426;-41
2022/03/05 06:54:58;;;;;;;36.57;13.57;;;-0.80;99.90;;;;;;5076648;28;20422;-48
2022/03/05 06:57:24;;;;;;;38.23;15.20;;;-0.70;99.90;;;;;;5076535;28;20748;-46
2022/03/05 06:59:50;;;;;;;41.00;15.87;;;-0.70;99.90;;;;;;5076710;28;20290;-47
2022/03/05 07:02:16;;;;;;;37.97;15.80;;;-0.60;99.90;;;;;;5076864;28;20459;-47
2022/03/05 07:04:42;;;;;;;38.07;15.33;;;-0.60;99.90;;;;;;5076824;28;20794;-46
2022/03/05 07:07:08;;;;;;;37.90;14.93;;;-0.60;99.90;;;;;;5076353;28;20229;-45
2022/03/05 07:09:34;;;;;;;43.30;16.27;;;-0.50;99.90;;;;;;5076552;28;20623;-47
2022/03/05 07:12:00;;;;;;;38.23;14.30;;;-0.50;99.90;;;;;;5076385;28;20679;-46
2022/03/05 07:14:26;;;;;;;44.00;15.57;;;-0.50;99.90;;;;;;5058474;28;20184;-48
2022/03/05 07:16:52;;;;;;;39.97;17.27;;;-0.40;99.90;;;;;;5076211;28;21002;-47
2022/03/05 07:19:18;;;;;;;31.80;13.40;;;-0.40;99.90;;;;;;5076573;28;20544;-46
2022/03/05 07:21:44;;;;;;;44.50;16.13;;;-0.30;99.90;;;;;;5077029;28;20495;-46
2022/03/05 07:24:09;;;;;;;37.03;15.53;;;-0.20;99.90;;;;;;5076353;28;20182;-47
2022/03/05 07:26:35;;;;;;;40.83;15.97;;;-0.20;99.90;;;;;;5076009;28;20179;-46
2022/03/05 07:29:02;;;;;;;41.33;16.67;;;-0.20;99.90;;;;;;5076859;28;20186;-47
2022/03/05 07:31:27;;;;;;;47.00;18.03;;;-0.10;99.90;;;;;;5076122;28;20500;-49
2022/03/05 07:33:53;;;;;;;40.37;16.10;;;-0.10;99.90;;;;;;5058596;28;20503;-46
2022/03/05 07:36:19;;;;;;;42.47;15.90;;;0.00;99.90;;;;;;5076405;28;20237;-47
2022/03/05 07:38:45;;;;;;;43.30;17.07;;;0.00;99.90;;;;;;5076787;28;20226;-46
2022/03/05 07:41:12;;;;;;;41.67;14.90;;;0.10;99.90;;;;;;5075757;28;20425;-46
2022/03/05 07:43:38;;;;;;;41.97;16.50;;;0.10;99.90;;;;;;5076369;28;20441;-44
2022/03/05 07:46:04;;;;;;;37.47;15.87;;;0.20;99.90;;;;;;5076223;28;20402;-47
2022/03/05 07:48:30;;;;;;;40.87;16.00;;;0.20;99.90;;;;;;5076115;28;20800;-48
2022/03/05 07:50:58;;;;;;;40.10;16.03;;;0.30;99.90;;;;;;5076389;28;20179;-48
2022/03/05 07:53:24;;;;;;;47.67;17.17;;;0.40;99.90;;;;;;5075690;28;20432;-48
2022/03/05 07:55:50;;;;;;;42.80;16.77;;;0.50;99.90;;;;;;5076487;28;20417;-48
2022/03/05 07:58:15;;;;;;;38.77;15.13;;;0.50;99.90;;;;;;5075788;28;20208;-48
2022/03/05 08:00:41;;;;;;;40.93;15.30;;;0.60;99.90;;;;;;5078270;28;20176;-46
2022/03/05 08:03:07;;;;;;;38.20;15.50;;;0.70;99.90;;;;;;5078150;28;20178;-46
2022/03/05 08:05:32;;;;;;;36.40;15.53;;;0.80;99.90;;;;;;5075610;28;20176;-47
2022/03/05 08:07:58;;;;;;;42.80;16.73;;;0.90;99.90;;;;;;5057550;28;20219;-47
2022/03/05 08:10:23;;;;;;;31.30;13.60;;;1.00;99.90;;;;;;5075775;28;20188;-45
2022/03/05 08:12:49;;;;;;;36.93;14.53;;;1.00;99.90;;;;;;5075376;28;20249;-49
2022/03/05 08:15:15;;;;;;;45.63;16.47;;;1.20;99.90;;;;;;5075721;28;20176;-49
2022/03/05 08:17:53;;;;;;;42.30;16.27;;;1.20;99.90;;;;;;5074522;28;20664;-48
2022/03/05 08:20:19;;;;;;;45.03;16.07;;;1.30;99.90;;;;;;5075105;28;20295;-47
2022/03/05 08:22:45;;;;;;;38.97;16.00;;;1.40;99.90;;;;;;5076101;28;20410;-47
2022/03/05 08:25:12;;;;;;;43.63;17.07;;;1.50;99.90;;;;;;5056963;28;20420;-45
2022/03/05 08:27:38;;;;;;;36.20;15.30;;;1.60;99.90;;;;;;5075063;28;20605;-45
2022/03/05 08:30:04;;;;;;;38.97;15.93;;;1.70;99.90;;;;;;5075502;28;20502;-47
2022/03/05 08:32:29;;;;;;;32.23;14.57;;;1.80;99.90;;;;;;5075166;28;20197;-45
2022/03/05 08:34:55;;;;;;;39.57;15.93;;;2.00;99.90;;;;;;5076094;28;20470;-47
2022/03/05 08:37:21;;;;;;;40.93;13.77;;;2.00;99.90;;;;;;5075984;28;20208;-47
2022/03/05 08:39:46;;;;;;;23.73;10.83;;;2.10;99.90;;;;;;5075736;28;20618;-47
2022/03/05 08:42:12;;;;;;;42.50;16.43;;;2.20;99.90;;;;;;5075785;28;20539;-47
2022/03/05 08:44:37;;;;;;;32.33;13.97;;;2.30;99.90;;;;;;5075295;28;20531;-48
2022/03/05 08:47:04;;;;;;;35.80;16.07;;;2.40;99.90;;;;;;5075508;28;20192;-47
2022/03/05 08:49:30;;;;;;;35.63;15.13;;;2.50;99.90;;;;;;5076684;28;20224;-46
2022/03/05 08:51:55;;;;;;;37.57;17.00;;;2.60;99.90;;;;;;5077103;28;20416;-46
2022/03/05 08:54:21;;;;;;;33.90;15.27;;;2.60;99.90;;;;;;5076741;28;20186;-48
2022/03/05 08:56:48;;;;;;;39.20;17.00;;;2.70;99.90;;;;;;5076253;28;20237;-48
2022/03/05 08:59:13;;;;;;;37.07;15.90;;;2.80;99.90;;;;;;5076587;28;20207;-48
2022/03/05 09:01:39;;;;;;;36.57;16.47;;;2.90;99.90;;;;;;5076740;28;20400;-46
2022/03/05 09:04:05;;;;;;;37.63;14.90;;;3.00;99.90;;;;;;5077360;28;20536;-45
2022/03/05 09:06:31;;;;;;;33.67;15.00;;;3.10;99.90;;;;;;5059199;28;20175;-47
2022/03/05 09:08:57;;;;;;;30.07;12.33;;;3.20;99.90;;;;;;5058816;28;20202;-47
2022/03/05 09:11:23;;;;;;;29.13;13.53;;;3.30;99.90;;;;;;5076606;28;20658;-48
2022/03/05 09:13:49;;;;;;;33.60;14.53;;;3.40;99.90;;;;;;5077323;28;20220;-49
2022/03/05 09:16:15;;;;;;;34.23;15.67;;;3.50;99.90;;;;;;5076889;28;20175;-45
2022/03/05 09:18:41;;;;;;;31.90;15.27;;;3.50;99.90;;;;;;5076795;28;20235;-47
2022/03/05 09:21:07;;;;;;;40.30;16.33;;;3.60;99.90;;;;;;5076683;28;20503;-47
2022/03/05 09:23:32;;;;;;;33.33;13.27;;;3.70;99.90;;;;;;5077687;28;20304;-47
2022/03/05 09:25:58;;;;;;;23.27;11.57;;;3.80;99.90;;;;;;5078622;28;20204;-48
2022/03/05 09:28:24;;;;;;;28.57;12.83;;;3.90;99.90;;;;;;5076987;28;20192;-46
2022/03/05 09:30:49;;;;;;;36.47;15.90;;;3.90;99.90;;;;;;5074479;28;20195;-46
2022/03/05 09:33:16;;;;;;;37.67;16.67;;;4.00;99.90;;;;;;5056057;28;20197;-48
2022/03/05 09:35:43;;;;;;;38.97;16.73;;;4.10;99.90;;;;;;5040381;28;20660;-48
2022/03/05 09:38:09;;;;;;;33.17;15.27;;;4.20;99.90;;;;;;5059368;28;20479;-48
2022/03/05 09:40:35;;;;;;;35.40;15.03;;;4.30;99.90;;;;;;5077390;28;20183;-48
2022/03/05 09:43:01;;;;;;;39.27;17.50;;;4.40;99.90;;;;;;5076826;28;20208;-49
2022/03/05 09:45:27;;;;;;;38.13;15.50;;;4.50;99.90;;;;;;5074994;28;20180;-48
2022/03/05 09:47:56;;;;;;;34.37;16.03;;;4.60;99.90;;;;;;5077749;28;20202;-48
2022/03/05 09:50:24;;;;;;;34.80;16.27;;;4.70;99.90;;;;;;5077593;28;20176;-47
2022/03/05 09:52:50;;;;;;;37.37;15.17;;;4.80;99.90;;;;;;5077589;28;20180;-47
2022/03/05 09:55:15;;;;;;;30.00;15.60;;;4.90;99.90;;;;;;5060022;28;20240;-48
2022/03/05 09:57:42;;;;;;;36.67;15.17;;;5.00;99.90;;;;;;5077304;28;20549;-47
2022/03/05 10:00:08;;;;;;;32.60;15.80;;;5.00;99.90;;;;;;5077826;28;20207;-49
2022/03/05 10:02:34;;;;;;;37.20;17.03;;;5.10;99.90;;;;;;5077114;28;20186;-47
2022/03/05 10:05:18;;;;;;;27.30;15.17;;;5.20;99.90;;;;;;5077302;28;20547;-48
2022/03/05 10:08:07;;;;;;;33.73;15.70;;;5.40;99.90;;;;;;5077098;28;20216;-47
2022/03/05 10:10:52;;;;;;;34.17;17.03;;;5.50;99.90;;;;;;5076511;28;20159;-48
2022/03/05 10:13:26;;;;;;;31.27;14.67;;;5.60;99.90;;;;;;5076664;28;20232;-48
2022/03/05 10:15:59;;;;;;;30.73;15.20;;;5.80;99.90;;;;;;5076599;28;20190;-47
2022/03/05 10:18:31;;;;;;;33.13;14.80;;;5.80;99.90;;;;;;5076472;28;20256;-48
2022/03/05 10:21:01;;;;;;;32.37;14.53;;;6.00;99.90;;;;;;5076468;28;20167;-47
2022/03/05 10:23:32;;;;;;;34.20;15.03;;;6.10;99.90;;;;;;5076490;28;20164;-48
2022/03/05 10:26:01;;;;;;;28.33;15.47;;;6.10;99.90;;;;;;5076388;28;20591;-48
2022/03/05 10:28:30;;;;;;;31.63;14.73;;;6.30;99.90;;;;;;5076313;28;20203;-47
2022/03/05 10:31:03;;;;;;;31.33;14.43;;;6.40;99.90;;;;;;5076365;28;20227;-47
2022/03/05 10:33:43;;;;;;;34.10;16.20;;;6.60;99.90;;;;;;5076442;28;20191;-46
2022/03/05 10:36:20;;;;;;;31.07;16.20;;;6.70;99.90;;;;;;5076346;28;20164;-47
2022/03/05 10:38:47;;;;;;;31.20;15.87;;;6.80;99.90;;;;;;5075865;28;20235;-45
2022/03/05 10:41:17;;;;;;;30.43;14.87;;;6.90;99.90;;;;;;5075910;28;20524;-49
2022/03/05 10:43:44;;;;;;;36.73;15.63;;;7.00;99.90;;;;;;5076243;28;20188;-48
2022/03/05 10:46:09;;;;;;;27.43;14.73;;;7.00;99.90;;;;;;5075834;28;20176;-49
2022/03/05 10:48:41;;;;;;;33.37;14.83;;;7.20;99.90;;;;;;5075144;28;20685;-50
2022/03/05 10:51:18;;;;;;;29.27;14.53;;;7.30;99.90;;;;;;5058100;28;20665;-49
2022/03/05 10:53:47;;;;;;;32.10;16.63;;;7.40;99.90;;;;;;5075816;28;20172;-49
2022/03/05 10:56:33;;;;;;;29.07;15.63;;;7.40;99.90;;;;;;5075756;28;20176;-48
2022/03/05 10:59:01;;;;;;;28.20;15.53;;;7.60;99.90;;;;;;5075579;28;20601;-51
2022/03/05 11:01:28;;;;;;;31.90;16.10;;;7.70;99.90;;;;;;5057624;28;20201;-49
2022/03/05 11:03:54;;;;;;;29.90;15.43;;;7.80;99.90;;;;;;5075573;28;20654;-47
2022/03/05 11:06:20;;;;;;;31.20;15.70;;;7.90;99.90;;;;;;5075624;28;20173;-45
2022/03/05 11:08:47;;;;;;;26.53;14.90;;;7.90;99.90;;;;;;5075428;28;20219;-46
2022/03/05 11:11:17;;;;;;;32.87;15.60;;;8.00;99.90;;;;;;5075505;28;20189;-44
2022/03/05 11:13:43;;;;;;;28.80;15.17;;;8.10;99.90;;;;;;5075765;28;20185;-43
2022/03/05 11:16:10;;;;;;;29.60;14.97;;;8.10;99.90;;;;;;5075349;28;20774;-44
2022/03/05 11:18:37;;;;;;;29.80;14.47;;;8.20;99.90;;;;;;5075259;28;20567;-44
2022/03/05 11:21:03;;;;;;;28.13;15.83;;;8.30;99.90;;;;;;5073680;28;20189;-44
2022/03/05 11:23:29;;;;;;;27.93;14.23;;;8.40;99.90;;;;;;5056761;28;20184;-44
2022/03/05 11:25:56;;;;;;;28.23;15.40;;;8.60;99.90;;;;;;5075443;28;20175;-44
2022/03/05 11:28:22;;;;;;;30.43;14.87;;;8.70;99.90;;;;;;5075104;28;20277;-45
2022/03/05 11:30:55;;;;;;;24.17;14.17;;;8.80;99.90;;;;;;5075374;28;20179;-45
2022/03/05 11:33:35;;;;;;;26.97;15.80;;;9.00;99.90;;;;;;5075324;28;20226;-44
2022/03/05 11:36:08;;;;;;;25.27;14.10;;;9.10;99.90;;;;;;5075613;28;20729;-44
2022/03/05 11:38:44;;;;;;;27.73;14.97;;;9.10;99.90;;;;;;5074709;28;20203;-45
2022/03/05 11:41:25;;;;;;;28.67;14.97;;;9.20;99.90;;;;;;5057147;28;20205;-45
2022/03/05 11:43:51;;;;;;;23.13;13.80;;;9.30;99.90;;;;;;5075743;28;20524;-45
2022/03/05 11:46:25;;;;;;;22.67;13.17;;;9.50;99.90;;;;;;5074689;28;20175;-44
2022/03/05 11:48:59;;;;;;;24.83;14.60;;;9.60;99.90;;;;;;5075151;28;20251;-46
2022/03/05 11:51:25;;;;;;;28.37;15.20;;;9.80;99.90;;;;;;5074898;28;20542;-44
2022/03/05 11:54:12;;;;;;;24.53;14.20;;;9.90;99.90;;;;;;5074683;28;20257;-45
2022/03/05 11:56:37;;;;;;;24.83;13.47;;;9.90;99.90;;;;;;5074892;28;20209;-46
2022/03/05 11:59:28;;;;;;;23.10;13.93;;;10.10;99.90;;;;;;5073603;28;20242;-47
2022/03/05 12:01:53;;;;;;;27.33;15.53;;;10.10;99.90;;;;;;5074847;28;20258;-46
2022/03/05 12:04:28;;;;;;;29.43;14.47;;;10.20;99.90;;;;;;5074479;28;20210;-47
2022/03/05 12:07:02;;;;;;;35.03;15.27;;;10.20;99.90;;;;;;5074611;28;20191;-45
2022/03/05 12:09:37;;;;;;;24.73;15.20;;;10.30;99.90;;;;;;5074790;28;20194;-45
2022/03/05 12:12:08;;;;;;;26.87;15.63;;;10.30;99.90;;;;;;5074879;28;20191;-46
2022/03/05 12:15:06;;;;;;;32.30;17.60;;;10.50;99.90;;;;;;5074730;28;20164;-45
2022/03/05 12:17:45;;;;;;;26.30;15.47;;;10.40;99.90;;;;;;5051264;28;20230;-44
2022/03/05 12:20:14;;;;;;;25.93;15.03;;;10.40;99.90;;;;;;5074532;28;20191;-48
2022/03/05 12:22:57;;;;;;;25.30;14.83;;;10.50;99.90;;;;;;5074160;28;20178;-46
2022/03/05 12:25:27;;;;;;;25.83;15.70;;;10.60;99.90;;;;;;5074355;28;20166;-47
2022/03/05 12:27:53;;;;;;;26.00;15.00;;;10.60;99.90;;;;;;5074156;28;20193;-45
2022/03/05 12:30:22;;;;;;;25.63;15.83;;;10.50;99.90;;;;;;5074267;28;20581;-46
2022/03/05 12:32:47;;;;;;;27.20;14.53;;;10.60;99.90;;;;;;5074221;28;20176;-46
2022/03/05 12:35:17;;;;;;;25.50;14.50;;;10.60;99.90;;;;;;5074802;28;20256;-47